Time;durP1;ratioP1;P1;durP2;ratioP2;P2;SDS_P1;SDS_P2;PMS_P1;PMS_P2;Temp;Humidity;BMP_temperature;BMP_pressure;BME280_temperature;BME280_humidity;BME280_pressure;Samples;Min_cycle;Max_cycle;Signal;HPM_P1;HPM_P2
2022/07/17 00:01:07;;;;;;;8.53;2.40;;;14.20;99.90;;;;;;5084537;28;20234;-83
2022/07/17 00:03:34;;;;;;;7.37;2.70;;;14.10;99.90;;;;;;5089372;28;20207;-83
2022/07/17 00:06:01;;;;;;;4.77;2.50;;;14.00;99.90;;;;;;5081309;28;20254;-83
2022/07/17 00:08:31;;;;;;;4.43;2.60;;;14.30;99.90;;;;;;5083345;28;20230;-85
2022/07/17 00:10:59;;;;;;;5.77;2.37;;;15.10;99.90;;;;;;5088792;28;20207;-82
2022/07/17 00:13:26;;;;;;;6.60;2.63;;;14.60;99.90;;;;;;5087904;28;20211;-83
2022/07/17 00:15:54;;;;;;;8.90;2.50;;;13.90;99.90;;;;;;5092626;28;20744;-83
2022/07/17 00:18:22;;;;;;;4.13;2.27;;;13.90;99.90;;;;;;5084129;28;20214;-82
2022/07/17 00:20:48;;;;;;;7.13;2.13;;;14.10;99.90;;;;;;5076764;28;20204;-83
2022/07/17 00:23:16;;;;;;;5.33;2.33;;;13.90;99.90;;;;;;5081106;28;20245;-83
2022/07/17 00:25:44;;;;;;;5.93;2.20;;;13.90;99.90;;;;;;5086660;28;20226;-86
2022/07/17 00:28:15;;;;;;;6.37;2.33;;;14.10;99.90;;;;;;5090911;28;20227;-84
2022/07/17 00:30:43;;;;;;;3.47;2.03;;;13.80;99.90;;;;;;5088420;28;20343;-87
2022/07/17 00:33:10;;;;;;;8.20;2.40;;;13.80;99.90;;;;;;5090020;27;20212;-84
2022/07/17 00:35:37;;;;;;;3.73;2.17;;;13.70;99.90;;;;;;5086334;28;20199;-84
2022/07/17 00:38:04;;;;;;;6.50;2.57;;;13.80;99.90;;;;;;5085281;28;20208;-83
2022/07/17 00:40:33;;;;;;;4.63;2.03;;;13.80;99.90;;;;;;5080892;28;20219;-83
2022/07/17 00:43:00;;;;;;;6.43;2.17;;;13.70;99.90;;;;;;5082199;28;20234;-84
2022/07/17 00:45:27;;;;;;;4.87;2.23;;;13.70;99.90;;;;;;5088609;28;20219;-84
2022/07/17 00:48:00;;;;;;;4.17;2.70;;;13.60;99.90;;;;;;5087436;28;20222;-86
2022/07/17 00:50:38;;;;;;;3.63;2.60;;;13.70;99.90;;;;;;5084668;28;20695;-86
2022/07/17 00:53:06;;;;;;;3.60;2.57;;;13.60;99.90;;;;;;5077856;28;20239;-83
2022/07/17 00:55:33;;;;;;;7.47;2.70;;;13.60;99.90;;;;;;5083634;28;20214;-86
2022/07/17 00:58:16;;;;;;;8.27;2.70;;;13.60;99.90;;;;;;5076865;28;20242;-86
2022/07/17 01:00:48;;;;;;;6.43;2.63;;;13.50;99.90;;;;;;5084800;28;20296;-85
2022/07/17 01:03:18;;;;;;;5.17;3.50;;;14.00;99.90;;;;;;5083796;28;20746;-86
2022/07/17 01:05:45;;;;;;;7.97;4.33;;;;;;;;;;5084471;28;20252;-84
2022/07/17 01:08:12;;;;;;;7.57;4.57;;;13.40;99.90;;;;;;5087794;28;20215;-84
2022/07/17 01:10:43;;;;;;;9.80;3.70;;;13.40;99.90;;;;;;5077170;28;20226;-84
2022/07/17 01:13:13;;;;;;;6.60;2.80;;;13.40;99.90;;;;;;5084569;28;20276;-84
2022/07/17 01:15:41;;;;;;;6.03;2.73;;;13.40;99.90;;;;;;5085202;28;20218;-84
2022/07/17 01:18:13;;;;;;;6.03;2.43;;;13.40;99.90;;;;;;5087162;28;20256;-84
2022/07/17 01:20:45;;;;;;;8.03;3.03;;;13.30;99.90;;;;;;5083913;28;20207;-84
2022/07/17 01:23:17;;;;;;;5.57;2.73;;;13.30;99.90;;;;;;5083517;28;20219;-83
2022/07/17 01:25:45;;;;;;;5.30;2.70;;;13.20;99.90;;;;;;5080861;28;20256;-84
2022/07/17 01:28:16;;;;;;;3.20;2.33;;;13.20;99.90;;;;;;5085153;28;20421;-83
2022/07/17 01:30:49;;;;;;;6.27;2.87;;;13.20;99.90;;;;;;5085189;28;20229;-84
2022/07/17 01:33:20;;;;;;;5.87;2.80;;;13.10;99.90;;;;;;5088867;28;20345;-85
2022/07/17 01:35:50;;;;;;;5.13;2.53;;;13.00;99.90;;;;;;5079792;28;20298;-83
2022/07/17 01:38:18;;;;;;;5.63;2.43;;;13.10;99.90;;;;;;5082434;28;20645;-84
2022/07/17 01:40:46;;;;;;;4.10;2.63;;;12.90;99.90;;;;;;5083162;28;20313;-84
2022/07/17 01:43:13;;;;;;;7.30;3.20;;;12.90;99.90;;;;;;5081883;28;20533;-85
2022/07/17 01:45:41;;;;;;;4.33;2.60;;;12.80;99.90;;;;;;5084392;28;20230;-85
2022/07/17 01:48:09;;;;;;;6.40;2.80;;;12.80;99.90;;;;;;5086337;28;20728;-84
2022/07/17 01:50:36;;;;;;;6.13;2.40;;;12.80;99.90;;;;;;5086468;28;20230;-85
2022/07/17 01:53:03;;;;;;;5.60;3.10;;;12.80;99.90;;;;;;5073986;28;20260;-84
2022/07/17 01:55:30;;;;;;;5.20;2.47;;;12.80;99.90;;;;;;5080553;28;20277;-85
2022/07/17 01:57:58;;;;;;;5.57;2.70;;;12.80;99.90;;;;;;5086169;28;20290;-84
2022/07/17 02:00:26;;;;;;;5.13;2.70;;;12.70;99.90;;;;;;5079207;28;20217;-85
2022/07/17 02:02:53;;;;;;;7.97;3.00;;;12.70;99.90;;;;;;5082508;28;20241;-83
2022/07/17 02:05:20;;;;;;;6.63;3.13;;;12.70;99.90;;;;;;5085289;28;20205;-84
2022/07/17 02:07:47;;;;;;;5.93;2.67;;;12.70;99.90;;;;;;5082675;28;20222;-84
2022/07/17 02:10:18;;;;;;;7.30;3.00;;;12.60;99.90;;;;;;5083248;28;20748;-86
2022/07/17 02:12:45;;;;;;;8.90;3.10;;;12.60;99.90;;;;;;5085980;28;20207;-85
2022/07/17 02:15:13;;;;;;;7.20;2.80;;;12.60;99.90;;;;;;5078886;28;20217;-84
2022/07/17 02:17:41;;;;;;;5.70;3.00;;;12.60;99.90;;;;;;5086760;28;20201;-84
2022/07/17 02:20:09;;;;;;;10.90;2.60;;;12.50;99.90;;;;;;5081715;28;20263;-84
2022/07/17 02:22:36;;;;;;;6.70;3.20;;;12.50;99.90;;;;;;5082297;28;20241;-84
2022/07/17 02:25:09;;;;;;;4.63;2.70;;;12.50;99.90;;;;;;5074008;28;20243;-85
2022/07/17 02:27:37;;;;;;;4.17;2.87;;;12.50;99.90;;;;;;5103681;27;20210;-84
2022/07/17 02:30:10;;;;;;;5.80;2.83;;;12.50;99.90;;;;;;5080169;28;20232;-85
2022/07/17 02:32:37;;;;;;;3.70;2.83;;;12.50;99.90;;;;;;5086578;28;20213;-83
2022/07/17 02:35:06;;;;;;;3.90;2.70;;;12.50;99.90;;;;;;5084755;28;20215;-86
2022/07/17 02:37:37;;;;;;;8.90;2.80;;;12.50;99.90;;;;;;5075088;28;20205;-84
2022/07/17 02:40:05;;;;;;;8.43;2.97;;;12.50;99.90;;;;;;5084330;28;20197;-86
2022/07/17 02:42:32;;;;;;;5.43;2.83;;;12.50;99.90;;;;;;5083779;28;20302;-87
2022/07/17 02:45:00;;;;;;;6.77;3.10;;;12.50;99.90;;;;;;5084420;28;20211;-85
2022/07/17 02:47:32;;;;;;;8.50;3.03;;;12.50;99.90;;;;;;5085649;28;20221;-85
2022/07/17 02:50:06;;;;;;;4.67;3.00;;;12.40;99.90;;;;;;5081587;28;20232;-86
2022/07/17 02:52:33;;;;;;;5.90;2.83;;;12.40;99.90;;;;;;5072695;28;20293;-85
2022/07/17 02:55:04;;;;;;;8.57;2.63;;;12.40;99.90;;;;;;5082037;28;20217;-85
2022/07/17 02:57:34;;;;;;;4.33;2.80;;;12.30;99.90;;;;;;5079974;28;20246;-86
2022/07/17 03:00:06;;;;;;;4.00;2.57;;;12.30;99.90;;;;;;5084729;28;20221;-84
2022/07/17 03:02:34;;;;;;;5.30;2.43;;;12.30;99.90;;;;;;5084821;28;20233;-85
2022/07/17 03:05:01;;;;;;;3.70;2.43;;;12.20;99.90;;;;;;5085353;28;20208;-86
2022/07/17 03:07:30;;;;;;;6.83;2.90;;;12.20;99.90;;;;;;5076634;28;20209;-84
2022/07/17 03:10:01;;;;;;;8.57;2.90;;;12.20;99.90;;;;;;5072237;28;20264;-84
2022/07/17 03:12:32;;;;;;;8.33;2.87;;;12.10;99.90;;;;;;5079194;28;20200;-86
2022/07/17 03:14:59;;;;;;;3.83;2.63;;;12.10;99.90;;;;;;5080430;28;20388;-86
2022/07/17 03:17:28;;;;;;;3.40;2.90;;;12.10;99.90;;;;;;5081360;28;20202;-85
2022/07/17 03:19:59;;;;;;;5.57;3.07;;;12.10;99.90;;;;;;5080499;28;20283;-83
2022/07/17 03:22:26;;;;;;;4.63;2.63;;;12.10;99.90;;;;;;5085142;28;20206;-84
2022/07/17 03:24:53;;;;;;;3.83;2.53;;;12.10;99.90;;;;;;5075979;28;20589;-84
2022/07/17 03:27:23;;;;;;;6.07;2.30;;;12.00;99.90;;;;;;5079772;28;21040;-85
2022/07/17 03:29:50;;;;;;;3.47;2.30;;;12.00;99.90;;;;;;5079424;28;20318;-83
2022/07/17 03:32:19;;;;;;;3.57;2.40;;;12.10;99.90;;;;;;5088366;28;20650;-84
2022/07/17 03:34:46;;;;;;;7.03;2.43;;;12.00;99.90;;;;;;5082838;28;20204;-86
2022/07/17 03:37:14;;;;;;;7.43;2.93;;;12.00;99.90;;;;;;5083063;28;20304;-85
2022/07/17 03:39:43;;;;;;;8.33;3.53;;;12.00;99.90;;;;;;5077552;28;20200;-86
2022/07/17 03:42:13;;;;;;;5.27;3.00;;;12.00;99.90;;;;;;5078778;28;20213;-87
2022/07/17 03:44:40;;;;;;;5.53;2.63;;;12.00;99.90;;;;;;5086964;28;20225;-85
2022/07/17 03:47:07;;;;;;;3.70;2.70;;;12.00;99.90;;;;;;5103395;28;20232;-85
2022/07/17 03:49:34;;;;;;;3.80;2.40;;;11.90;99.90;;;;;;5103698;28;20220;-84
2022/07/17 03:52:03;;;;;;;8.03;3.23;;;11.90;99.90;;;;;;5093954;28;20201;-84
2022/07/17 03:54:33;;;;;;;4.57;2.70;;;11.90;99.90;;;;;;5093077;28;20208;-84
2022/07/17 03:57:00;;;;;;;7.43;2.90;;;11.90;99.90;;;;;;5084086;28;20205;-84
2022/07/17 03:59:28;;;;;;;2.97;2.67;;;11.90;99.90;;;;;;5095132;28;20200;-85
2022/07/17 04:01:57;;;;;;;6.10;2.50;;;11.90;99.90;;;;;;5090520;28;20223;-84
2022/07/17 04:04:35;;;;;;;;;;;;;;;;;;;;;
2022/07/17 04:07:06;;;;;;;2.90;2.60;;;11.90;99.90;;;;;;5076219;28;20212;-85
2022/07/17 04:09:37;;;;;;;6.20;2.30;;;11.90;99.90;;;;;;5082655;28;20204;-86
2022/07/17 04:12:04;;;;;;;5.77;2.53;;;12.00;99.90;;;;;;5083037;28;20240;-85
2022/07/17 04:14:32;;;;;;;4.80;2.87;;;11.90;99.90;;;;;;5076600;28;20204;-85
2022/07/17 04:16:59;;;;;;;3.17;2.17;;;11.80;99.90;;;;;;5078538;28;21233;-85
2022/07/17 04:19:33;;;;;;;6.40;2.30;;;11.80;99.90;;;;;;5084757;28;20726;-86
2022/07/17 04:22:00;;;;;;;5.63;2.40;;;11.80;99.90;;;;;;5080687;28;20284;-86
2022/07/17 04:24:28;;;;;;;2.97;2.10;;;11.90;99.90;;;;;;5087456;28;20247;-85
2022/07/17 04:26:57;;;;;;;4.50;2.20;;;12.00;99.90;;;;;;5081663;28;20678;-83
2022/07/17 04:29:24;;;;;;;3.13;2.57;;;12.00;99.90;;;;;;5079579;28;20233;-85
2022/07/17 04:31:51;;;;;;;8.17;2.50;;;12.00;99.90;;;;;;5080204;28;20226;-83
2022/07/17 04:34:20;;;;;;;5.97;2.60;;;11.90;99.90;;;;;;5086427;28;20634;-86
2022/07/17 04:36:46;;;;;;;3.93;2.80;;;12.20;99.90;;;;;;5082191;28;20964;-85
2022/07/17 04:39:13;;;;;;;8.13;2.90;;;12.30;99.90;;;;;;5080082;28;20914;-84
2022/07/17 04:41:42;;;;;;;7.27;2.47;;;12.40;99.90;;;;;;5088119;28;20245;-84
2022/07/17 04:44:12;;;;;;;4.60;2.43;;;12.50;99.90;;;;;;5081179;28;20233;-86
2022/07/17 04:46:39;;;;;;;7.10;2.77;;;12.60;99.90;;;;;;5081638;28;20750;-86
2022/07/17 04:49:06;;;;;;;3.50;2.47;;;12.80;99.90;;;;;;5089149;28;20626;-83
2022/07/17 04:51:35;;;;;;;5.97;2.30;;;12.90;99.90;;;;;;5088909;28;20296;-87
2022/07/17 04:54:03;;;;;;;5.67;2.53;;;13.00;99.90;;;;;;5082339;28;20556;-84
2022/07/17 04:56:30;;;;;;;4.70;2.40;;;13.10;99.90;;;;;;5081869;28;20261;-85
2022/07/17 04:58:57;;;;;;;4.80;2.47;;;13.30;99.90;;;;;;5088120;28;20208;-86
2022/07/17 05:01:26;;;;;;;7.83;3.03;;;13.40;99.90;;;;;;5086953;28;20239;-86
2022/07/17 05:03:54;;;;;;;4.20;3.10;;;13.40;99.90;;;;;;5083865;28;20626;-85
2022/07/17 05:06:23;;;;;;;3.63;2.43;;;13.50;99.90;;;;;;5083596;28;20200;-83
2022/07/17 05:08:50;;;;;;;6.20;2.53;;;13.60;99.90;;;;;;5081059;28;20204;-83
2022/07/17 05:11:17;;;;;;;4.10;2.33;;;13.70;99.90;;;;;;5088305;28;20389;-85
2022/07/17 05:13:44;;;;;;;3.00;2.30;;;13.80;99.90;;;;;;5083260;28;20364;-84
2022/07/17 05:16:16;;;;;;;4.20;2.33;;;13.90;99.90;;;;;;5085891;28;20232;-85
2022/07/17 05:18:43;;;;;;;4.17;2.57;;;13.90;99.90;;;;;;5084160;28;20204;-82
2022/07/17 05:21:10;;;;;;;6.80;2.80;;;13.90;99.90;;;;;;5078267;28;20220;-86
2022/07/17 05:23:37;;;;;;;5.00;2.33;;;14.00;99.90;;;;;;5077768;28;20210;-84
2022/07/17 05:26:03;;;;;;;4.20;2.47;;;14.00;99.90;;;;;;5080031;28;20212;-83
2022/07/17 05:28:30;;;;;;;7.57;3.30;;;13.90;99.90;;;;;;5082697;28;20614;-84
2022/07/17 05:31:04;;;;;;;6.93;2.50;;;14.00;99.90;;;;;;5077442;28;20659;-84
2022/07/17 05:33:31;;;;;;;6.00;3.00;;;14.00;99.90;;;;;;5078087;28;20200;-84
2022/07/17 05:35:58;;;;;;;3.97;2.57;;;14.00;99.90;;;;;;5082641;28;20668;-83
2022/07/17 05:38:25;;;;;;;4.67;2.70;;;14.00;99.90;;;;;;5083457;28;20283;-84
2022/07/17 05:40:52;;;;;;;2.93;2.33;;;14.20;99.90;;;;;;5084160;28;20277;-84
2022/07/17 05:43:19;;;;;;;5.20;2.80;;;15.00;99.90;;;;;;5079941;28;20660;-86
2022/07/17 05:45:46;;;;;;;4.13;2.70;;;15.90;99.90;;;;;;5088034;28;20239;-84
2022/07/17 05:48:14;;;;;;;3.53;2.42;;;17.90;99.90;;;;;;5087847;28;20708;-84
2022/07/17 05:50:43;;;;;;;5.13;2.50;;;18.70;99.90;;;;;;5083479;28;20244;-84
2022/07/17 05:53:10;;;;;;;4.40;2.40;;;20.00;99.90;;;;;;5078875;28;20200;-86
2022/07/17 05:55:37;;;;;;;8.57;2.53;;;20.90;99.90;;;;;;5082947;28;20199;-85
2022/07/17 05:58:07;;;;;;;5.80;2.92;;;21.00;99.90;;;;;;5084696;28;20204;-85
2022/07/17 06:00:37;;;;;;;8.98;3.00;;;20.80;99.90;;;;;;5085308;28;20344;-84
2022/07/17 06:03:04;;;;;;;4.43;2.65;;;21.00;99.90;;;;;;5098178;28;20260;-86
2022/07/17 06:05:31;;;;;;;5.95;2.80;;;20.30;99.90;;;;;;5109663;28;20200;-87
2022/07/17 06:07:59;;;;;;;7.72;3.10;;;20.60;99.90;;;;;;5111289;28;20188;-87
2022/07/17 06:10:27;;;;;;;4.78;2.97;;;19.70;99.90;;;;;;5100030;28;20986;-85
2022/07/17 06:12:59;;;;;;;5.30;2.90;;;20.00;99.90;;;;;;5097164;28;20210;-84
2022/07/17 06:15:32;;;;;;;5.90;2.83;;;21.20;99.90;;;;;;5097441;28;20692;-85
2022/07/17 06:18:04;;;;;;;7.60;2.80;;;21.70;99.90;;;;;;5086938;28;20544;-87
2022/07/17 06:20:31;;;;;;;6.18;2.78;;;22.60;99.90;;;;;;5099466;28;20534;-86
2022/07/17 06:23:00;;;;;;;5.90;2.63;;;23.30;99.90;;;;;;5090962;28;20191;-88
2022/07/17 06:25:30;;;;;;;4.43;2.63;;;24.30;99.90;;;;;;5101242;28;20267;-85
2022/07/17 06:27:57;;;;;;;6.75;2.13;;;24.90;99.90;;;;;;5107699;28;20203;-86
2022/07/17 06:30:24;;;;;;;6.55;2.30;;;25.60;99.90;;;;;;5089765;28;20228;-86
2022/07/17 06:32:55;;;;;;;5.18;2.40;;;26.30;99.90;;;;;;5094914;28;20545;-85
2022/07/17 06:35:24;;;;;;;4.35;2.22;;;27.00;99.90;;;;;;5091852;28;20303;-85
2022/07/17 06:37:57;;;;;;;4.70;1.88;;;;;;;;;;5092233;28;20206;-86
2022/07/17 06:40:24;;;;;;;4.47;2.08;;;27.90;96.20;;;;;;5095473;28;20199;-85
2022/07/17 06:42:51;;;;;;;5.82;2.10;;;28.20;95.10;;;;;;5092116;28;20323;-86
2022/07/17 06:45:18;;;;;;;5.47;2.15;;;28.80;93.80;;;;;;5083251;28;20225;-85
2022/07/17 06:47:46;;;;;;;4.97;1.88;;;29.10;92.50;;;;;;5088412;28;20216;-86
2022/07/17 06:50:16;;;;;;;5.03;2.00;;;29.50;91.30;;;;;;5076965;28;20254;-86
2022/07/17 06:52:43;;;;;;;7.85;2.35;;;29.80;90.50;;;;;;5085559;28;20200;-85
2022/07/17 06:55:12;;;;;;;4.20;1.75;;;29.90;89.90;;;;;;5081554;28;20619;-85
2022/07/17 06:57:39;;;;;;;5.18;1.98;;;29.40;88.50;;;;;;5076627;28;20200;-88
2022/07/17 07:00:08;;;;;;;4.13;1.80;;;29.20;88.40;;;;;;5083839;28;20365;-83
2022/07/17 07:02:36;;;;;;;5.10;1.77;;;29.30;87.90;;;;;;5082613;28;20318;-84
2022/07/17 07:05:04;;;;;;;5.70;2.30;;;29.30;87.70;;;;;;5083228;28;20196;-83
2022/07/17 07:07:34;;;;;;;3.85;1.48;;;29.50;87.00;;;;;;5078562;28;20208;-84
2022/07/17 07:10:01;;;;;;;7.07;1.77;;;29.80;85.60;;;;;;5082769;28;20198;-82
2022/07/17 07:12:32;;;;;;;4.25;1.95;;;30.00;84.60;;;;;;5076618;28;20254;-83
2022/07/17 07:14:59;;;;;;;8.02;2.00;;;30.10;83.80;;;;;;5085387;28;20208;-83
2022/07/17 07:17:26;;;;;;;3.88;1.70;;;30.20;83.20;;;;;;5077562;28;20266;-82
2022/07/17 07:20:03;;;;;;;4.25;1.67;;;30.60;82.10;;;;;;5085448;28;20965;-85
2022/07/17 07:22:38;;;;;;;4.78;1.30;;;30.60;79.50;;;;;;5082509;28;20207;-85
2022/07/17 07:25:06;;;;;;;6.45;1.50;;;30.30;78.50;;;;;;5085839;28;20579;-83
2022/07/17 07:27:33;;;;;;;4.70;1.60;;;30.40;78.40;;;;;;5079670;28;20203;-83
2022/07/17 07:29:59;;;;;;;3.17;1.63;;;30.60;78.50;;;;;;5076289;28;20578;-82
2022/07/17 07:32:26;;;;;;;4.40;1.75;;;30.70;77.30;;;;;;5084422;28;20227;-85
2022/07/17 07:34:54;;;;;;;6.47;1.98;;;30.80;77.30;;;;;;5079567;28;20208;-86
2022/07/17 07:37:21;;;;;;;4.47;1.50;;;30.90;77.10;;;;;;5079612;28;20199;-87
2022/07/17 07:39:51;;;;;;;6.35;2.13;;;31.00;76.50;;;;;;5081524;28;20204;-85
2022/07/17 07:42:18;;;;;;;3.15;1.67;;;31.30;75.80;;;;;;5085169;28;20207;-84
2022/07/17 07:44:45;;;;;;;4.72;1.83;;;31.30;75.10;;;;;;5083906;28;20207;-85
2022/07/17 07:47:12;;;;;;;3.67;1.60;;;31.40;75.00;;;;;;5088812;28;20327;-85
2022/07/17 07:49:48;;;;;;;4.65;1.50;;;31.30;74.10;;;;;;5086789;28;20522;-87
2022/07/17 07:52:21;;;;;;;3.53;1.70;;;31.60;73.50;;;;;;5086316;28;20597;-87
2022/07/17 07:54:48;;;;;;;3.30;1.40;;;31.70;72.90;;;;;;5078293;28;20229;-86
2022/07/17 07:57:18;;;;;;;4.68;1.77;;;31.60;72.30;;;;;;5079615;28;20295;-86
2022/07/17 07:59:49;;;;;;;3.83;1.60;;;31.80;71.40;;;;;;5079084;28;20325;-87
2022/07/17 08:02:17;;;;;;;5.43;1.60;;;31.60;70.80;;;;;;5075631;28;20247;-87
2022/07/17 08:04:44;;;;;;;4.15;1.40;;;31.30;70.90;;;;;;5084842;28;20192;-85
2022/07/17 08:07:14;;;;;;;4.45;1.35;;;30.70;71.80;;;;;;5079053;28;20208;-85
2022/07/17 08:09:43;;;;;;;4.38;1.10;;;30.80;72.20;;;;;;5082802;28;20214;-85
2022/07/17 08:12:12;;;;;;;4.82;1.38;;;30.90;71.00;;;;;;5081925;28;20250;-86
2022/07/17 08:15:00;;;;;;;3.40;1.20;;;30.90;71.30;;;;;;5084730;28;20250;-85
2022/07/17 08:17:28;;;;;;;5.63;1.40;;;30.70;71.10;;;;;;5089047;28;20213;-86
2022/07/17 08:19:57;;;;;;;3.50;1.17;;;30.70;71.30;;;;;;5091688;28;20228;-85
2022/07/17 08:22:24;;;;;;;2.42;0.98;;;30.80;71.40;;;;;;5083020;28;20296;-87
2022/07/17 08:25:11;;;;;;;2.97;1.50;;;30.90;71.90;;;;;;5089639;28;20210;-86
2022/07/17 08:27:45;;;;;;;3.80;1.30;;;30.80;71.60;;;;;;5090306;28;20219;-86
2022/07/17 08:30:14;;;;;;;3.75;1.33;;;30.60;71.70;;;;;;5087787;28;20219;-85
2022/07/17 08:32:45;;;;;;;4.70;1.45;;;30.50;72.10;;;;;;5085972;28;20223;-86
2022/07/17 08:35:12;;;;;;;7.28;1.38;;;30.30;71.70;;;;;;5108613;27;20204;-84
2022/07/17 08:37:49;;;;;;;6.65;1.50;;;30.00;73.00;;;;;;5085887;28;20214;-83
2022/07/17 08:40:28;;;;;;;24.05;2.88;;;29.90;72.80;;;;;;5092737;28;20203;-85
2022/07/17 08:43:00;;;;;;;6.20;1.25;;;29.60;72.30;;;;;;5102854;28;20223;-87
2022/07/17 08:45:28;;;;;;;4.97;1.33;;;29.50;71.60;;;;;;5109144;28;20220;-86
2022/07/17 08:48:19;;;;;;;4.70;1.20;;;29.20;72.30;;;;;;5105738;28;20327;-87
2022/07/17 08:50:47;;;;;;;8.02;1.50;;;29.20;73.60;;;;;;5086172;28;20316;-84
2022/07/17 08:53:14;;;;;;;3.55;1.15;;;29.20;73.10;;;;;;5089978;28;20211;-82
2022/07/17 08:55:41;;;;;;;4.80;1.20;;;29.40;72.10;;;;;;5082112;28;20207;-81
2022/07/17 08:58:15;;;;;;;3.92;1.30;;;29.60;71.70;;;;;;5078803;28;20211;-84
2022/07/17 09:00:45;;;;;;;3.17;1.25;;;29.60;72.50;;;;;;5082694;28;20290;-81
2022/07/17 09:03:15;;;;;;;2.50;1.20;;;29.60;72.60;;;;;;5089247;28;20680;-83
2022/07/17 09:05:43;;;;;;;4.97;1.20;;;29.60;71.60;;;;;;5081596;28;20619;-82
2022/07/17 09:08:21;;;;;;;3.83;1.23;;;29.50;72.60;;;;;;5082054;28;20203;-82
2022/07/17 09:10:53;;;;;;;5.63;1.00;;;29.60;71.40;;;;;;5087013;28;20210;-85
2022/07/17 09:13:30;;;;;;;5.05;1.30;;;29.60;70.10;;;;;;5080913;28;20204;-84
2022/07/17 09:16:10;;;;;;;1.35;1.00;;;29.30;70.30;;;;;;5086990;28;20222;-83
2022/07/17 09:18:45;;;;;;;4.15;1.15;;;28.90;68.60;;;;;;5081995;28;20212;-85
2022/07/17 09:21:24;;;;;;;2.78;1.15;;;28.60;71.00;;;;;;5076568;28;20214;-83
2022/07/17 09:24:03;;;;;;;3.95;1.58;;;28.60;71.00;;;;;;5084969;28;20211;-83
2022/07/17 09:26:34;;;;;;;4.95;1.30;;;28.70;72.30;;;;;;5076007;28;20212;-83
2022/07/17 09:29:03;;;;;;;3.83;1.27;;;28.70;72.40;;;;;;5098118;28;20204;-84
2022/07/17 09:31:31;;;;;;;2.78;1.20;;;28.50;73.20;;;;;;5087431;28;20227;-82
2022/07/17 09:33:59;;;;;;;4.78;1.35;;;28.50;73.30;;;;;;5083935;28;20215;-82
2022/07/17 09:36:29;;;;;;;3.17;1.23;;;28.70;74.00;;;;;;5079253;28;20295;-84
2022/07/17 09:38:58;;;;;;;3.97;1.13;;;28.80;72.70;;;;;;5076565;28;20205;-82
2022/07/17 09:41:29;;;;;;;3.88;1.33;;;28.90;72.80;;;;;;5087247;28;20197;-82
2022/07/17 09:44:00;;;;;;;3.08;1.00;;;28.80;73.30;;;;;;5083139;28;20202;-83
2022/07/17 09:46:33;;;;;;;2.38;1.20;;;29.00;73.90;;;;;;5079267;28;20218;-83
2022/07/17 09:49:04;;;;;;;4.90;1.20;;;29.00;72.30;;;;;;5083479;28;20220;-87
2022/07/17 09:51:37;;;;;;;2.45;1.20;;;28.80;73.60;;;;;;5084459;28;20216;-86
2022/07/17 09:54:12;;;;;;;2.90;0.93;;;28.70;73.40;;;;;;5085420;28;20212;-84
2022/07/17 09:56:40;;;;;;;7.10;1.35;;;28.40;73.80;;;;;;5084489;28;20203;-85
2022/07/17 09:59:10;;;;;;;4.82;1.30;;;28.30;73.50;;;;;;5084477;28;20642;-86
2022/07/17 10:01:39;;;;;;;3.72;1.40;;;28.20;74.30;;;;;;5082304;28;20228;-86
2022/07/17 10:04:12;;;;;;;2.83;1.20;;;28.20;74.00;;;;;;5097880;28;20964;-84
2022/07/17 10:06:42;;;;;;;3.92;1.00;;;28.10;74.80;;;;;;5099295;28;20235;-85
2022/07/17 10:09:09;;;;;;;2.28;1.02;;;27.90;73.80;;;;;;5089124;28;20204;-83
2022/07/17 10:11:38;;;;;;;3.55;1.13;;;27.90;74.10;;;;;;5089774;28;20259;-86
2022/07/17 10:14:14;;;;;;;3.25;1.08;;;27.80;74.00;;;;;;5089766;28;20236;-84
2022/07/17 10:16:42;;;;;;;1.83;1.13;;;27.80;74.70;;;;;;5091625;28;20354;-84
2022/07/17 10:19:44;;;;;;;3.42;1.13;;;27.80;74.20;;;;;;5088015;28;20324;-84
2022/07/17 10:22:12;;;;;;;6.03;1.27;;;27.90;73.00;;;;;;5089480;28;20329;-85
2022/07/17 10:24:55;;;;;;;4.45;1.20;;;27.70;73.50;;;;;;5088223;28;20196;-85
2022/07/17 10:27:27;;;;;;;3.95;1.30;;;27.80;73.70;;;;;;5083673;28;20298;-85
2022/07/17 10:30:09;;;;;;;3.53;1.30;;;27.90;73.50;;;;;;5088128;28;20215;-86
2022/07/17 10:32:37;;;;;;;4.45;1.40;;;28.00;74.10;;;;;;5084617;28;20224;-86
2022/07/17 10:35:07;;;;;;;2.72;1.00;;;28.00;74.10;;;;;;5091784;28;20215;-87
2022/07/17 10:37:34;;;;;;;2.97;1.10;;;27.90;75.50;;;;;;5099489;28;20191;-86
2022/07/17 10:40:21;;;;;;;2.47;1.23;;;27.80;76.00;;;;;;5088994;28;20279;-86
2022/07/17 10:42:54;;;;;;;4.30;1.40;;;27.80;73.70;;;;;;5090441;28;20246;-86
2022/07/17 10:45:38;;;;;;;1.70;0.90;;;27.80;72.80;;;;;;5090709;28;20325;-85
2022/07/17 10:48:12;;;;;;;4.25;1.27;;;27.80;71.30;;;;;;5085275;28;20319;-87
2022/07/17 10:50:57;;;;;;;2.70;1.20;;;27.90;70.90;;;;;;5091824;28;20553;-86
2022/07/17 10:53:36;;;;;;;5.85;1.40;;;27.80;71.20;;;;;;5093894;28;20224;-85
2022/07/17 10:56:06;;;;;;;3.83;1.10;;;27.80;70.90;;;;;;5088770;28;20191;-84
2022/07/17 10:58:39;;;;;;;2.55;1.08;;;27.80;71.00;;;;;;5088567;28;20218;-87
2022/07/17 11:01:12;;;;;;;3.53;1.15;;;27.90;69.80;;;;;;5097609;28;20224;-87
2022/07/17 11:03:55;;;;;;;3.58;1.10;;;27.70;68.50;;;;;;5092045;28;20272;-86
2022/07/17 11:06:30;;;;;;;2.13;1.25;;;27.70;68.40;;;;;;5086379;28;20199;-84
2022/07/17 11:09:04;;;;;;;3.05;1.10;;;27.60;69.70;;;;;;5091864;28;20207;-85
2022/07/17 11:11:50;;;;;;;4.10;1.38;;;27.70;70.30;;;;;;5093874;28;20313;-85
2022/07/17 11:14:22;;;;;;;6.40;1.40;;;27.80;72.10;;;;;;5083880;28;20200;-89
2022/07/17 11:16:56;;;;;;;2.55;1.60;;;27.80;71.20;;;;;;5089728;28;20219;-85
2022/07/17 11:19:32;;;;;;;3.38;1.45;;;27.70;71.80;;;;;;5086075;28;20294;-85
2022/07/17 11:22:04;;;;;;;2.58;1.30;;;27.70;73.10;;;;;;5084714;28;20582;-84
2022/07/17 11:24:43;;;;;;;4.40;1.80;;;27.70;72.30;;;;;;5092414;28;20198;-87
2022/07/17 11:27:13;;;;;;;3.15;1.38;;;27.70;71.40;;;;;;5102284;28;20298;-86
2022/07/17 11:29:41;;;;;;;7.15;1.75;;;27.60;71.40;;;;;;5096224;28;20215;-84
2022/07/17 11:32:11;;;;;;;2.53;1.25;;;27.70;71.10;;;;;;5079285;28;20228;-86
2022/07/17 11:34:38;;;;;;;4.13;1.38;;;27.80;71.00;;;;;;5084425;28;20255;-90
2022/07/17 11:37:11;;;;;;;2.25;1.33;;;27.90;71.30;;;;;;5086077;28;20231;-89
2022/07/17 11:39:46;;;;;;;3.15;1.30;;;27.90;72.30;;;;;;5092404;28;20210;-86
2022/07/17 11:42:19;;;;;;;17.88;2.92;;;27.90;73.10;;;;;;5087786;28;20911;-86
2022/07/17 11:44:50;;;;;;;44.38;41.50;;;27.90;74.30;;;;;;5101289;28;20207;-85
2022/07/17 11:47:27;;;;;;;15.10;12.27;;;27.90;73.20;;;;;;5091232;28;20238;-86
2022/07/17 11:50:09;;;;;;;437.48;401.90;;;28.00;72.90;;;;;;5095449;28;20215;-86
2022/07/17 11:52:44;;;;;;;25.48;23.30;;;28.00;72.80;;;;;;5091726;28;20231;-86
2022/07/17 11:55:13;;;;;;;12.35;11.13;;;28.20;72.00;;;;;;5100397;28;20211;-88
2022/07/17 11:57:50;;;;;;;14.57;13.15;;;28.30;72.10;;;;;;5085444;28;20204;-88
2022/07/17 12:00:22;;;;;;;6.45;2.03;;;28.40;72.40;;;;;;5089635;28;20589;-84
2022/07/17 12:03:04;;;;;;;5.05;1.80;;;28.40;72.00;;;;;;5097400;28;20290;-86
2022/07/17 12:05:34;;;;;;;4.70;1.70;;;28.30;72.00;;;;;;5092287;28;20207;-86
2022/07/17 12:08:02;;;;;;;7.60;4.50;;;28.20;73.00;;;;;;5087128;28;20213;-87
2022/07/17 12:10:32;;;;;;;3.90;1.95;;;28.30;73.60;;;;;;5090319;28;20208;-83
2022/07/17 12:13:06;;;;;;;3.13;1.90;;;28.40;73.50;;;;;;5098274;28;20234;-83
2022/07/17 12:15:48;;;;;;;3.17;1.83;;;28.60;72.90;;;;;;5093839;28;20612;-86
2022/07/17 12:18:26;;;;;;;3.53;1.80;;;28.60;71.50;;;;;;5095310;28;20200;-84
2022/07/17 12:20:56;;;;;;;3.97;2.13;;;28.70;71.30;;;;;;5095078;28;20210;-87
2022/07/17 12:23:38;;;;;;;2.95;1.80;;;28.70;71.40;;;;;;5094071;28;20203;-88
2022/07/17 12:26:19;;;;;;;5.50;2.00;;;28.80;71.50;;;;;;5095727;28;20884;-86
2022/07/17 12:28:56;;;;;;;9.77;2.65;;;28.90;71.90;;;;;;5100470;28;20210;-86
2022/07/17 12:31:31;;;;;;;3.70;2.10;;;28.80;71.30;;;;;;5093290;28;20275;-89
2022/07/17 12:34:04;;;;;;;5.03;2.00;;;28.80;69.70;;;;;;5094302;28;20299;-87
2022/07/17 12:36:47;;;;;;;;;;;;;;;;;;;;;
2022/07/17 12:39:41;;;;;;;4.82;2.08;;;29.00;69.10;;;;;;5086834;28;20192;-89
2022/07/17 12:42:26;;;;;;;3.50;1.80;;;29.20;71.30;;;;;;5096624;28;20285;-89
2022/07/17 12:44:56;;;;;;;4.55;1.65;;;29.10;70.80;;;;;;5087568;28;20206;-89
2022/07/17 12:47:28;;;;;;;4.05;2.03;;;29.10;71.00;;;;;;5096204;28;20219;-87
2022/07/17 12:49:55;;;;;;;5.68;1.83;;;28.90;70.00;;;;;;5095605;28;20231;-85
2022/07/17 12:52:23;;;;;;;2.53;1.63;;;28.80;70.00;;;;;;5093339;28;21028;-88
2022/07/17 12:54:50;;;;;;;5.38;1.98;;;28.90;71.30;;;;;;5080662;28;20208;-86
2022/07/17 12:57:20;;;;;;;4.80;2.50;;;29.00;71.60;;;;;;5087691;28;20611;-83
2022/07/17 12:59:49;;;;;;;6.78;2.35;;;29.00;70.90;;;;;;5095860;28;20279;-89
2022/07/17 13:02:17;;;;;;;3.85;2.75;;;29.10;70.40;;;;;;5097048;28;20760;-85
2022/07/17 13:04:47;;;;;;;26.65;22.73;;;29.10;69.80;;;;;;5093599;28;20374;-88